Current Weather

Zamperini Fld

Torrance, California (KTOA)

Report from: Monday, July 15, 2024 7:50 PM PDT
Current time: Tuesday, July 16, 2024 2:50 AM PDT

Nearby weather – Weather history – Daily summaries
Weather forecast

Temperature19.0°C (66.2°F)
Dew point16.0°C (60.8°F)
Winds 8 kts (4.1 m/s, 9.2 mph) West (270°)
Visibility10 mi. (16.1 km)
Clouds Few clouds 7,000 ft. (2,134 m)
Altimeter29.93 in.Hg (1014 mB)
Relative humidity83 %
Density altitude709 ft. (216 m)
Flight conditions Visual Meteorological Conditions
Raw dataKTOA 160250Z 27008KT 10SM FEW070 19/16 A2993
An error has occurred. This application may no longer respond until reloaded. Reload 🗙